Gillespie, Illinois
Current Conditions -  °F | °C
As of 11:15 PM on Wednesday 22 Oct 2014 (Local Time) from K3LF Reporting Station
Clear Clear  
Wind Chill: 42°   Ceiling: Unl
Heat Index: 42°   Visibility: 10mi
Dew Point: 38°   Wind: 0mph
Humidity: 86%   Direction: NA
Pressure: 30.25"   Gusts: NA
Location:  39.13°N, 89.82°W
Report Text: K3LF 230415Z AUTO 00000KT 10SM CLR 06/04 A3025 RMK AO2 T00560035
Loading
Personal Weather Stations






























Interactive Weather Map
Tropical Storm Tracking
New forecast layout! Learn more

10-Day Weather Forecast

Advertisements
Track Severe Weather on mobile